< Cyclone 200910 2009 Season Cyclone 200917 >
Cyclone 200916 (Gabrielle)
General InformationTrack Information on Google MapsDetailed Wind InformationList of All Images || ResourceGoogle EarthGE AnimationAtom FeedGeoJSON
Detalied Best Track (Time Zone = UTC)
Year Month Day Hour Lat. Long. Pressure (hPa) Wind (kt) Class Image Chart
2009 2 28 00 -9.6 101.2 1002 25 2 Image --
2009 2 28 06 -10.0 101.1 1002 25 2 Image --
2009 2 28 12 -10.3 101.2 1002 25 2 Image --
2009 2 28 15 -10.5 101.2 1002 27.5 0 Image --
2009 2 28 18 -10.6 101.2 1000 30 2 Image --
2009 3 1 00 -10.8 101.2 998 35 3 Image --
2009 3 1 06 -11.2 102.3 996 35 3 Image --
2009 3 1 12 -12.0 103.7 996 35 3 Image --
2009 3 1 18 -12.7 104.7 996 35 3 Image --
2009 3 2 00 -13.5 105.5 996 35 3 Image --
2009 3 2 03 -13.8 105.8 996 35 0 Image --
2009 3 2 06 -13.9 106.0 996 35 3 Image --
2009 3 2 12 -13.5 106.7 996 35 3 Image --
2009 3 2 15 -13.4 107.0 996 35 3 Image --
2009 3 2 18 -13.4 107.2 996 35 3 Image --
2009 3 2 21 -13.4 107.5 998 32.5 0 Image --
2009 3 3 00 -13.6 107.8 1000 30 2 Image --
2009 3 3 03 -13.9 107.9 1000 30 2 Image --
2009 3 3 06 -14.2 107.8 1000 30 2 Image --
2009 3 3 09 -14.4 107.7 1000 30 2 Image --
2009 3 3 12 -14.3 107.2 1000 30 2 Image --
2009 3 3 15 -14.0 106.8 1000 30 2 Image --
2009 3 3 18 -14.2 106.4 1000 30 2 Image --
2009 3 3 21 -14.4 106.0 1001 30 2 Image --
2009 3 4 00 -14.7 105.7 1002 30 2 Image --
2009 3 4 03 -15.3 105.6 1002 30 0 Image --
2009 3 4 06 -15.9 104.9 1002 30 2 Image --
2009 3 4 12 -16.5 102.8 1002 30 2 Image --
2009 3 4 17 -16.3 101.8 1002 30 0 Image --
2009 3 4 18 -16.4 101.6 1002 30 2 Image --
2009 3 4 19 -16.5 101.4 1002 30 0 Image --
2009 3 4 22 -16.7 100.8 1002 30 0 Image --
2009 3 5 00 -16.9 100.3 1002 30 2 Image --
2009 3 5 06 -18.4 98.7 1002 30 2 Image --
2009 3 5 12 -19.3 96.6 1004 30 2 Image --
2009 3 5 18 -20.5 94.6 1006 30 2 Image --
2009 3 6 00 -21.4 93.1 1006 25 2 Image --
< Cyclone 200910 2009 Season Cyclone 200917 >

Help